Grand Pass, Missouri
Current Conditions -  °F | °C
As of 5:10 AM on Monday 22 Dec 2014 (Local Time) from KSZL Reporting Station
Drizzle Drizzle  
Wind Chill: 36°   Ceiling: Unl
Heat Index: 41°   Visibility: 9mi
Dew Point: 37°   Wind: 8mph
Humidity: 87%   Direction: 150°SSE
Pressure: 29.66"   Gusts: NA
Location:  39.2052°N, 93.3822°W
Report Text: KSZL 221110Z AUTO 15007KT 9SM R19/5500FT -DZ SCT021 05/03 A2966 RMK AO2 DZB1105 $
Loading
Personal Weather Stations






























Interactive Weather Map New forecast layout! Learn more

10-Day Weather Forecast

Advertisements
Track Severe Weather on mobile